Time;durP1;ratioP1;P1;durP2;ratioP2;P2;SDS_P1;SDS_P2;PMS_P1;PMS_P2;Temp;Humidity;BMP_temperature;BMP_pressure;BME280_temperature;BME280_humidity;BME280_pressure;Samples;Min_cycle;Max_cycle;Signal;HPM_P1;HPM_P2
2022/08/22 00:01:55;;;;;;;7.22;3.15;;;18.90;65.30;;;18.23;49.17;97179.03;4990975;28;20410;-73
2022/08/22 00:04:32;;;;;;;6.15;2.97;;;18.90;64.50;;;18.14;49.85;97169.03;4990547;28;20399;-72
2022/08/22 00:07:06;;;;;;;6.30;3.10;;;18.80;65.40;;;18.23;48.85;97174.47;4991007;28;20414;-72
2022/08/22 00:09:42;;;;;;;6.22;3.08;;;18.90;64.40;;;18.11;49.85;97167.00;4973502;28;20434;-72
2022/08/22 00:12:19;;;;;;;8.10;3.50;;;18.80;64.80;;;18.05;50.75;97175.44;4973516;28;20406;-73
2022/08/22 00:14:57;;;;;;;6.40;3.00;;;18.80;66.00;;;18.05;50.69;97172.75;4990512;28;20956;-72
2022/08/22 00:17:50;;;;;;;7.03;3.47;;;18.80;66.00;;;18.10;50.09;97168.09;4990948;28;20407;-72
2022/08/22 00:20:23;;;;;;;5.63;2.95;;;18.90;65.50;;;18.18;50.14;97174.59;4990872;28;20412;-71
2022/08/22 00:22:58;;;;;;;6.05;3.00;;;18.90;65.50;;;18.19;50.64;97170.81;4990385;28;20411;-72
2022/08/22 00:25:43;;;;;;;5.37;3.23;;;18.90;66.00;;;18.22;50.54;97172.88;4990735;28;20434;-72
2022/08/22 00:28:16;;;;;;;6.47;3.05;;;19.00;65.90;;;18.25;50.80;97174.16;4990913;28;20909;-72
2022/08/22 00:30:51;;;;;;;6.57;3.53;;;19.00;66.10;;;18.25;51.26;97166.91;4990814;28;20418;-72
2022/08/22 00:33:29;;;;;;;7.63;3.15;;;19.00;66.80;;;18.30;50.04;97163.31;4974075;28;20896;-72
2022/08/22 00:36:13;;;;;;;4.70;2.92;;;19.00;66.00;;;18.17;50.55;97165.75;4994673;28;20406;-73
2022/08/22 00:38:51;;;;;;;7.88;3.15;;;18.90;66.00;;;18.13;51.14;97163.97;4994572;28;20402;-72
2022/08/22 00:41:38;;;;;;;6.00;3.17;;;18.90;66.70;;;18.08;51.37;97166.78;4994380;28;20406;-72
2022/08/22 00:44:34;;;;;;;7.00;3.28;;;18.90;66.90;;;18.18;50.24;97167.34;4994027;28;20489;-72
2022/08/22 00:47:18;;;;;;;7.40;3.17;;;18.80;66.80;;;18.01;51.03;97166.44;4976881;28;20792;-72
2022/08/22 00:50:25;;;;;;;5.00;2.80;;;18.70;66.50;;;17.89;51.85;97158.94;4994363;28;20454;-73
2022/08/22 00:53:16;;;;;;;6.10;3.13;;;18.70;67.40;;;17.85;52.35;97149.13;4993754;28;20407;-72
2022/08/22 00:56:01;;;;;;;8.02;3.30;;;18.70;68.00;;;17.82;52.19;97155.88;4981200;28;20418;-73
2022/08/22 00:59:07;;;;;;;7.93;3.70;;;18.60;68.00;;;17.86;51.40;97158.75;4994139;28;20454;-72
2022/08/22 01:01:36;;;;;;;5.90;3.42;;;18.60;67.20;;;17.83;51.55;97157.47;4994135;28;20417;-72
2022/08/22 01:04:43;;;;;;;5.53;3.03;;;18.60;67.30;;;17.83;51.60;97152.09;4992220;28;20776;-73
2022/08/22 01:07:28;;;;;;;9.02;3.70;;;18.60;67.40;;;17.85;51.20;97147.25;4976512;28;20788;-73
2022/08/22 01:10:13;;;;;;;8.43;3.20;;;18.60;67.10;;;17.70;52.10;97158.31;4993768;28;20434;-73
2022/08/22 01:13:04;;;;;;;6.25;3.10;;;18.50;67.90;;;17.75;51.33;97152.81;4993716;28;20434;-73
2022/08/22 01:15:34;;;;;;;6.32;3.30;;;18.50;67.20;;;17.61;52.41;97152.88;4993847;28;20412;-73
2022/08/22 01:18:30;;;;;;;6.38;3.30;;;18.40;68.10;;;17.56;52.27;97152.16;4993838;28;20435;-73
2022/08/22 01:22:08;;;;;;;5.15;2.88;;;18.30;69.10;;;17.51;52.75;97152.28;4993798;28;20768;-73
2022/08/22 01:25:30;;;;;;;5.22;3.20;;;18.30;68.70;;;17.62;51.83;97148.31;4993063;28;20410;-72
2022/08/22 01:28:36;;;;;;;7.60;3.45;;;18.30;67.90;;;17.61;51.43;97152.03;4993585;28;20414;-73
2022/08/22 01:32:02;;;;;;;6.03;3.13;;;18.30;67.80;;;17.38;52.53;97153.88;4993489;28;20430;-73
2022/08/22 01:35:03;;;;;;;6.32;3.28;;;18.10;68.80;;;17.28;53.46;97146.88;4982283;23;20439;-71
2022/08/22 01:38:12;;;;;;;6.13;3.20;;;18.10;69.70;;;17.23;53.92;97151.50;4973954;28;20416;-71
2022/08/22 01:41:56;;;;;;;6.03;3.00;;;18.00;70.00;;;17.21;53.94;97146.50;4970661;28;20420;-72
2022/08/22 01:45:17;;;;;;;4.63;3.00;;;18.00;70.20;;;17.25;53.38;97149.34;4894562;29;20597;-72
2022/08/22 01:47:53;;;;;;;6.43;3.38;;;18.10;69.40;;;17.39;52.16;97152.78;4991001;28;20414;-72
2022/08/22 01:50:31;;;;;;;4.65;3.10;;;18.10;68.50;;;17.24;52.97;97158.44;4975696;28;20488;-71
2022/08/22 01:53:03;;;;;;;4.85;2.80;;;18.00;69.90;;;17.18;53.72;97154.31;4992682;28;20394;-71
2022/08/22 01:55:35;;;;;;;4.25;2.80;;;18.00;69.60;;;17.17;53.69;97152.72;4992990;28;20417;-71
2022/08/22 01:58:12;;;;;;;7.13;3.33;;;18.00;69.90;;;17.23;52.84;97151.50;4993171;28;20410;-71
2022/08/22 02:01:01;;;;;;;7.82;3.58;;;18.00;69.10;;;17.25;52.63;97150.13;4992898;28;20406;-71
2022/08/22 02:03:32;;;;;;;6.25;3.40;;;18.00;68.90;;;17.26;52.25;97150.94;4992354;28;20402;-72
2022/08/22 02:06:06;;;;;;;7.03;3.38;;;18.00;68.90;;;17.09;53.29;97148.84;4992982;28;20398;-72
2022/08/22 02:08:43;;;;;;;7.68;3.72;;;17.90;69.60;;;17.07;53.58;97156.38;4992779;28;20391;-71
2022/08/22 02:11:30;;;;;;;8.55;3.40;;;17.90;69.90;;;17.14;52.67;97150.66;4992919;28;20943;-72
2022/08/22 02:14:02;;;;;;;5.28;3.58;;;17.80;69.50;;;17.05;53.25;97152.44;4992130;28;20885;-71
2022/08/22 02:16:36;;;;;;;5.60;3.20;;;17.80;69.80;;;17.05;52.91;97155.91;4992765;28;20418;-72
2022/08/22 02:19:19;;;;;;;4.70;3.00;;;17.70;69.70;;;16.88;54.28;97155.69;4992669;28;20445;-72
2022/08/22 02:21:52;;;;;;;6.43;3.38;;;17.60;70.80;;;16.87;54.28;97154.91;4992628;28;20411;-72
2022/08/22 02:24:28;;;;;;;7.50;3.40;;;17.70;70.90;;;16.88;54.27;97153.03;4974525;28;20780;-72
2022/08/22 02:27:10;;;;;;;9.20;3.42;;;17.70;70.60;;;16.82;54.77;97155.00;4992528;28;20423;-72
2022/08/22 02:29:45;;;;;;;6.22;3.38;;;17.60;71.30;;;16.83;55.24;97159.28;4992347;28;20414;-72
2022/08/22 02:32:24;;;;;;;8.75;3.50;;;17.70;71.60;;;16.84;55.07;97158.16;4991049;28;20398;-72
2022/08/22 02:35:02;;;;;;;6.60;3.42;;;17.70;71.50;;;16.90;53.89;97157.00;4991963;28;20466;-72
2022/08/22 02:37:41;;;;;;;6.43;3.58;;;17.70;70.80;;;16.88;54.22;97153.03;4992253;28;20409;-72
2022/08/22 02:40:24;;;;;;;6.18;3.40;;;17.70;70.90;;;16.81;54.34;97150.75;4992201;28;20433;-72
2022/08/22 02:42:58;;;;;;;6.30;3.60;;;17.60;71.30;;;16.68;55.51;97148.88;4991711;28;20852;-71
2022/08/22 02:45:35;;;;;;;7.70;3.20;;;17.50;72.80;;;16.70;54.86;97149.34;4992052;28;20407;-72
2022/08/22 02:48:13;;;;;;;6.55;3.55;;;17.50;71.80;;;16.77;54.34;97138.25;4992090;28;20506;-72
2022/08/22 02:50:50;;;;;;;7.93;3.78;;;17.50;71.20;;;16.81;54.21;97141.94;4991965;28;20434;-72
2022/08/22 02:53:27;;;;;;;9.45;3.45;;;17.50;71.30;;;16.76;53.89;97136.69;4991275;28;20884;-72
2022/08/22 02:56:02;;;;;;;5.00;3.30;;;17.40;71.20;;;16.67;54.35;97141.13;4991803;28;20398;-72
2022/08/22 02:58:38;;;;;;;7.05;3.55;;;17.30;71.70;;;16.49;54.98;97138.22;4990701;28;20438;-72
2022/08/22 03:01:23;;;;;;;7.77;3.60;;;17.30;72.10;;;16.37;56.11;97129.88;4991853;28;20475;-71
2022/08/22 03:03:51;;;;;;;6.45;3.30;;;17.20;73.00;;;16.33;56.54;97131.53;4991339;28;20430;-72
2022/08/22 03:06:37;;;;;;;7.18;3.55;;;17.20;73.50;;;16.31;56.44;97136.41;4991766;28;20407;-72
2022/08/22 03:09:22;;;;;;;6.82;3.50;;;17.20;73.50;;;16.37;56.22;97135.22;4974251;28;20465;-72
2022/08/22 03:11:57;;;;;;;5.78;3.25;;;17.20;72.90;;;16.42;55.58;97135.13;4991754;28;20481;-72
2022/08/22 03:14:32;;;;;;;5.40;3.20;;;17.20;72.70;;;16.29;56.98;97133.22;4991027;28;20410;-72
2022/08/22 03:17:06;;;;;;;10.63;3.65;;;17.10;73.50;;;16.26;56.67;97136.47;4991760;28;20576;-72
2022/08/22 03:19:54;;;;;;;7.18;3.83;;;17.10;73.70;;;16.29;56.20;97140.44;4991589;28;20424;-72
2022/08/22 03:22:31;;;;;;;6.32;3.63;;;17.10;73.50;;;16.21;56.79;97141.91;4991439;28;20434;-72
2022/08/22 03:25:11;;;;;;;7.40;3.53;;;17.10;74.00;;;16.17;57.00;97138.22;4991038;28;20402;-72
2022/08/22 03:27:43;;;;;;;7.32;3.45;;;17.00;74.20;;;16.22;55.59;97127.47;4991492;28;20407;-71
2022/08/22 03:30:16;;;;;;;7.43;3.60;;;17.10;73.10;;;16.16;56.30;97134.75;4991428;28;20473;-72
2022/08/22 03:32:54;;;;;;;7.68;3.85;;;17.00;73.60;;;16.15;56.35;97132.41;4990912;28;20421;-71
2022/08/22 03:35:33;;;;;;;6.13;3.28;;;17.00;73.60;;;16.07;57.36;97133.06;4973810;28;20993;-71
2022/08/22 03:38:17;;;;;;;7.00;3.05;;;16.90;74.30;;;16.01;57.38;97127.03;4991312;28;20398;-72
2022/08/22 03:41:07;;;;;;;6.97;3.72;;;16.90;74.50;;;16.12;55.90;97130.31;4991308;28;20416;-72
2022/08/22 03:44:07;;;;;;;5.22;3.15;;;16.90;73.20;;;16.00;56.58;97133.44;4990688;28;20406;-72
2022/08/22 03:47:29;;;;;;;6.38;3.65;;;16.80;73.80;;;16.07;55.83;97138.41;4991140;28;20407;-72
2022/08/22 03:50:40;;;;;;;6.53;3.57;;;16.80;73.60;;;15.90;56.42;97133.59;4966036;28;20429;-72
2022/08/22 03:53:53;;;;;;;7.10;3.60;;;16.70;73.90;;;15.84;56.96;97135.56;4982569;28;20892;-72
2022/08/22 03:57:30;;;;;;;8.27;3.83;;;16.70;74.40;;;15.77;57.26;97142.34;4991130;28;20414;-72
2022/08/22 04:00:20;;;;;;;4.53;3.30;;;16.60;74.80;;;15.74;57.79;97142.91;4991000;28;20453;-72
2022/08/22 04:03:39;;;;;;;7.32;3.90;;;16.60;75.20;;;15.70;58.32;97149.94;4990436;28;20978;-73
2022/08/22 04:06:43;;;;;;;6.50;3.60;;;16.60;75.80;;;15.71;58.19;97151.53;4991067;28;20409;-72
2022/08/22 04:09:43;;;;;;;7.97;3.77;;;16.60;75.90;;;15.76;57.53;97146.09;4993951;28;20772;-72
2022/08/22 04:13:01;;;;;;;8.70;3.60;;;16.60;75.20;;;15.79;57.00;97156.19;4995158;28;20406;-72
2022/08/22 04:16:05;;;;;;;7.22;3.85;;;16.60;75.00;;;15.70;57.84;97164.06;4994912;28;20411;-72
2022/08/22 04:19:12;;;;;;;6.57;3.75;;;16.50;76.40;;;15.59;58.32;97165.28;4995033;28;20395;-72
2022/08/22 04:22:10;;;;;;;8.75;3.88;;;16.50;76.10;;;15.58;57.93;97162.88;4994808;28;20410;-72
2022/08/22 04:24:58;;;;;;;7.78;3.53;;;16.40;76.00;;;15.65;57.14;97166.78;4994324;28;20399;-73
2022/08/22 04:27:32;;;;;;;6.03;3.70;;;16.40;75.20;;;15.53;57.67;97162.94;4994784;28;20402;-71
2022/08/22 04:30:08;;;;;;;8.50;3.83;;;16.30;75.60;;;15.41;58.85;97166.81;4994672;28;20420;-72
2022/08/22 04:32:41;;;;;;;7.93;3.90;;;16.30;76.70;;;15.42;58.66;97163.06;4994392;28;20395;-72
2022/08/22 04:35:15;;;;;;;6.25;3.55;;;16.30;76.70;;;15.38;59.13;97166.59;4994460;28;20398;-72
2022/08/22 04:37:49;;;;;;;7.22;3.80;;;16.30;77.10;;;15.35;59.40;97165.28;4994535;28;20434;-72
2022/08/22 04:40:23;;;;;;;9.32;4.00;;;16.20;77.20;;;15.37;58.92;97163.16;4994506;28;20430;-72
2022/08/22 04:42:55;;;;;;;6.20;3.63;;;16.30;77.10;;;15.36;59.23;97169.56;4994051;28;20406;-72
2022/08/22 04:45:28;;;;;;;6.30;3.63;;;16.30;77.40;;;15.38;59.33;97163.94;4994399;28;20413;-72
2022/08/22 04:48:04;;;;;;;7.65;3.60;;;16.30;77.40;;;15.36;59.51;97166.88;4976862;28;20425;-72
2022/08/22 04:50:38;;;;;;;6.37;3.80;;;16.30;77.80;;;15.36;59.47;97164.22;4994226;28;20453;-73
2022/08/22 04:53:22;;;;;;;7.65;3.70;;;16.30;77.80;;;15.38;59.54;97170.06;4993832;28;20398;-73
2022/08/22 04:56:00;;;;;;;4.97;3.33;;;16.30;77.70;;;15.38;59.64;97172.75;4994131;28;20410;-72
2022/08/22 04:58:40;;;;;;;8.15;4.18;;;16.30;78.20;;;15.50;58.95;97170.44;4994183;28;20398;-73
2022/08/22 05:01:15;;;;;;;6.68;4.00;;;16.30;77.40;;;15.47;59.11;97170.22;4994204;28;20884;-72
2022/08/22 05:03:51;;;;;;;9.60;4.28;;;16.30;77.80;;;15.48;59.30;97174.47;4993484;28;20410;-73
2022/08/22 05:06:21;;;;;;;7.72;3.88;;;16.30;78.00;;;15.49;59.34;97181.38;4994021;28;20437;-72
2022/08/22 05:08:49;;;;;;;7.03;3.97;;;16.30;78.20;;;15.44;59.72;97192.13;4993950;28;20407;-72
2022/08/22 05:11:20;;;;;;;10.13;4.50;;;16.30;78.50;;;15.54;59.23;97191.25;4993814;28;20421;-72
2022/08/22 05:13:53;;;;;;;6.47;4.03;;;16.30;78.20;;;15.53;59.46;97190.44;4993402;28;20502;-72
2022/08/22 05:16:24;;;;;;;9.50;4.38;;;16.30;78.50;;;15.58;59.21;97192.25;4993875;28;20478;-72
2022/08/22 05:18:55;;;;;;;11.43;4.70;;;16.30;78.40;;;15.53;59.53;97194.94;4993434;28;20506;-72
2022/08/22 05:21:28;;;;;;;10.63;4.53;;;16.30;78.90;;;15.51;59.78;97192.56;4975593;28;20502;-72
2022/08/22 05:24:01;;;;;;;8.50;3.85;;;16.30;79.00;;;15.46;60.31;97190.78;4975628;28;20415;-72
2022/08/22 05:26:33;;;;;;;7.75;3.90;;;16.30;79.30;;;15.59;59.35;97194.63;4993666;28;20413;-71
2022/08/22 05:29:06;;;;;;;7.90;4.50;;;16.30;79.00;;;15.61;59.58;97195.13;4993481;28;20430;-72
2022/08/22 05:31:40;;;;;;;8.37;3.90;;;16.40;79.20;;;15.54;60.58;97194.69;4993617;28;20402;-72
2022/08/22 05:34:12;;;;;;;7.05;3.80;;;16.40;79.80;;;15.56;61.00;97186.41;4992940;28;20407;-72
2022/08/22 05:36:42;;;;;;;8.18;4.22;;;16.30;80.50;;;15.62;61.62;97188.72;4993486;28;20438;-73
2022/08/22 05:39:15;;;;;;;7.97;4.43;;;16.40;81.10;;;15.69;61.83;97188.38;4993508;28;20405;-73
2022/08/22 05:41:42;;;;;;;8.40;4.20;;;16.50;81.40;;;15.75;62.21;97192.53;4993264;28;20466;-72
2022/08/22 05:44:18;;;;;;;7.82;4.13;;;16.60;82.00;;;15.79;62.59;97196.22;4992721;28;20399;-73
2022/08/22 05:46:48;;;;;;;8.38;4.60;;;16.60;82.30;;;15.84;62.70;97190.81;4975863;28;20406;-72
2022/08/22 05:49:21;;;;;;;7.25;4.28;;;16.70;82.50;;;15.87;62.68;97191.03;4993030;28;20414;-72
2022/08/22 05:52:01;;;;;;;5.57;4.03;;;16.70;82.80;;;15.91;62.74;97191.25;4993284;28;20399;-73
2022/08/22 05:54:32;;;;;;;6.87;4.10;;;16.80;82.90;;;15.97;62.75;97198.09;4992588;28;20465;-72
2022/08/22 05:57:10;;;;;;;7.35;3.90;;;16.80;83.10;;;16.02;63.05;97197.22;4993113;28;20414;-72
2022/08/22 05:59:41;;;;;;;6.80;3.90;;;16.80;83.40;;;16.07;63.23;97189.16;4993190;28;20398;-73
2022/08/22 06:02:14;;;;;;;8.60;3.97;;;16.90;83.70;;;16.11;63.34;97190.94;4993016;28;20399;-72
2022/08/22 06:04:50;;;;;;;6.75;3.67;;;16.90;84.00;;;16.18;63.08;97190.56;4992520;28;20433;-72
2022/08/22 06:07:22;;;;;;;7.85;4.20;;;17.00;84.00;;;16.23;63.17;97185.94;4992852;28;20405;-73
2022/08/22 06:10:19;;;;;;;11.55;4.00;;;17.00;83.80;;;16.32;63.00;97185.25;4992952;28;20418;-73
2022/08/22 06:12:54;;;;;;;8.45;4.68;;;17.10;83.90;;;16.41;61.98;97194.19;4980234;28;20900;-72
2022/08/22 06:15:31;;;;;;;9.00;4.40;;;17.20;83.00;;;16.48;60.99;97187.38;4992652;28;20429;-72
2022/08/22 06:18:04;;;;;;;9.68;4.65;;;17.20;82.00;;;16.56;60.71;97186.72;4992772;28;20409;-72
2022/08/22 06:20:37;;;;;;;7.65;4.50;;;17.30;81.50;;;16.61;60.61;97189.31;4992763;28;20888;-73
2022/08/22 06:23:06;;;;;;;8.02;4.50;;;17.30;81.20;;;16.66;60.93;97188.44;4991970;28;20405;-72
2022/08/22 06:25:37;;;;;;;10.07;4.97;;;17.40;81.80;;;16.71;61.29;97191.03;4992470;28;20406;-72
2022/08/22 06:28:07;;;;;;;9.93;5.25;;;17.40;82.20;;;16.77;61.15;97189.03;4992621;28;20398;-73
2022/08/22 06:30:38;;;;;;;9.73;5.28;;;17.50;82.20;;;16.84;61.24;97190.25;4992057;28;20418;-73
2022/08/22 06:33:08;;;;;;;8.27;5.13;;;17.50;82.10;;;16.89;61.26;97197.41;4991920;28;20485;-72
2022/08/22 06:38:32;;;;;;;12.60;6.00;;;17.60;82.10;;;17.01;60.69;97203.03;4992458;28;20526;-72
2022/08/22 06:41:05;;;;;;;12.20;5.57;;;17.70;81.40;;;17.06;60.47;97192.25;4992368;28;20403;-72
2022/08/22 06:43:40;;;;;;;12.90;5.60;;;17.70;81.40;;;17.10;60.19;97189.78;4991738;28;20710;-72
2022/08/22 06:46:09;;;;;;;10.00;5.25;;;17.80;81.30;;;17.14;60.21;97188.88;4992152;28;20414;-72
2022/08/22 06:48:36;;;;;;;11.57;5.60;;;17.80;81.00;;;17.18;60.44;97195.22;4992043;28;20407;-72
2022/08/22 06:51:07;;;;;;;10.23;4.80;;;17.90;81.40;;;17.24;58.48;97194.03;4991986;28;20776;-72
2022/08/22 06:53:39;;;;;;;11.13;5.47;;;17.90;79.10;;;17.32;58.00;97204.03;4991484;28;20423;-72
2022/08/22 06:56:06;;;;;;;12.43;5.43;;;18.00;78.30;;;17.42;57.56;97203.03;4992019;28;20403;-73
2022/08/22 06:58:37;;;;;;;12.32;5.47;;;18.10;77.90;;;17.51;57.92;97200.47;4991912;28;20409;-72
2022/08/22 07:01:11;;;;;;;14.57;7.30;;;18.20;78.00;;;17.58;58.42;97206.19;4991906;28;20460;-72
2022/08/22 07:03:44;;;;;;;11.27;6.25;;;18.30;78.50;;;17.65;58.66;97214.63;4991420;28;20750;-72
2022/08/22 07:06:14;;;;;;;11.05;5.78;;;18.30;78.70;;;17.74;58.24;97216.28;4991849;28;20411;-73
2022/08/22 07:08:41;;;;;;;16.58;6.47;;;18.40;78.60;;;17.80;57.63;97222.34;4991831;28;20421;-72
2022/08/22 07:11:18;;;;;;;11.27;5.68;;;18.50;77.60;;;17.84;56.03;97226.00;4991705;28;20426;-72
2022/08/22 07:13:53;;;;;;;10.65;5.55;;;18.50;75.90;;;17.92;56.18;97221.81;4991177;28;20407;-72
2022/08/22 07:16:31;;;;;;;13.05;5.30;;;18.60;75.80;;;17.98;55.66;97220.59;4991626;28;20413;-72
2022/08/22 07:18:58;;;;;;;11.27;5.10;;;18.60;75.40;;;18.04;55.35;97212.13;4991610;28;20493;-72
2022/08/22 07:21:27;;;;;;;9.57;4.97;;;18.70;74.80;;;18.12;55.11;97215.97;4991723;28;20402;-72
2022/08/22 07:23:54;;;;;;;11.65;5.05;;;18.80;74.60;;;18.19;54.60;97211.00;4991024;28;20438;-72
2022/08/22 07:26:31;;;;;;;11.15;4.57;;;18.80;74.00;;;18.31;54.84;97218.50;4991393;28;20456;-73
2022/08/22 07:29:04;;;;;;;8.50;4.25;;;19.00;74.20;;;18.43;55.04;97216.03;4991461;28;20418;-72
2022/08/22 07:31:38;;;;;;;10.60;4.53;;;19.00;74.60;;;18.47;54.32;97217.81;4991260;28;21019;-72
2022/08/22 07:34:31;;;;;;;8.95;3.92;;;19.10;73.30;;;18.59;53.66;97217.28;4992496;23;20447;-73
2022/08/22 07:37:04;;;;;;;10.57;4.18;;;19.20;72.50;;;18.65;53.24;97221.41;4971154;28;20404;-72
2022/08/22 07:39:36;;;;;;;6.43;3.70;;;19.30;71.90;;;18.69;52.65;97217.03;4971850;28;20400;-72
2022/08/22 07:42:11;;;;;;;10.38;4.30;;;19.40;71.40;;;18.80;52.79;97220.25;4971554;28;20404;-73
2022/08/22 07:45:01;;;;;;;8.20;3.60;;;19.50;71.60;;;18.86;53.66;97219.03;4988432;28;20394;-72
2022/08/22 07:47:56;;;;;;;6.32;3.45;;;19.50;72.40;;;18.92;54.78;97215.91;4991123;28;20445;-73
2022/08/22 07:50:27;;;;;;;10.43;4.20;;;19.60;73.40;;;19.00;54.29;97221.63;4991138;28;20422;-73
2022/08/22 07:52:59;;;;;;;6.33;4.10;;;19.70;73.40;;;19.22;54.21;97222.34;4990812;28;20497;-72
2022/08/22 07:55:27;;;;;;;10.75;4.53;;;19.80;73.50;;;19.31;52.16;97231.22;4990982;28;20398;-72
2022/08/22 07:57:57;;;;;;;8.37;4.00;;;19.90;70.70;;;19.31;51.50;97230.44;4991076;28;20413;-73
2022/08/22 08:00:25;;;;;;;8.52;3.95;;;20.00;69.90;;;19.41;51.64;97227.44;4990982;28;20458;-72
2022/08/22 08:02:57;;;;;;;8.85;3.72;;;20.10;70.00;;;19.52;51.58;97227.97;4990505;28;20401;-72
2022/08/22 08:05:28;;;;;;;6.88;4.10;;;20.10;69.80;;;19.53;52.19;97230.34;4973487;28;20410;-73
2022/08/22 08:07:55;;;;;;;8.80;3.60;;;20.20;70.40;;;19.59;52.93;97229.09;4973575;28;20912;-72
2022/08/22 08:10:30;;;;;;;8.55;3.58;;;20.20;71.30;;;19.62;52.91;97241.13;4990837;28;20481;-73
2022/08/22 08:13:02;;;;;;;7.55;3.50;;;20.20;71.30;;;19.66;52.58;97242.06;4990495;28;20493;-73
2022/08/22 08:15:32;;;;;;;7.10;3.40;;;20.30;71.00;;;19.73;52.18;97244.28;4990828;28;20609;-72
2022/08/22 08:18:07;;;;;;;8.20;3.60;;;20.30;70.40;;;19.78;52.08;97239.56;4990943;28;20767;-73
2022/08/22 08:20:35;;;;;;;7.75;3.33;;;20.40;70.30;;;19.86;52.58;97243.34;4990806;28;20482;-72
2022/08/22 08:23:04;;;;;;;7.00;3.50;;;20.40;70.80;;;19.91;52.42;97238.66;4990459;28;20416;-72
2022/08/22 08:25:47;;;;;;;5.40;3.40;;;20.50;70.60;;;19.98;52.35;97247.03;4990811;28;20407;-73
2022/08/22 08:31:07;;;;;;;9.32;3.70;;;20.60;70.40;;;20.07;51.86;97229.00;4990735;28;20425;-72
2022/08/22 08:33:38;;;;;;;8.80;3.63;;;20.70;70.10;;;20.19;51.87;97235.66;4990194;28;20411;-72
2022/08/22 08:36:14;;;;;;;5.57;3.33;;;20.70;70.00;;;20.30;51.89;97235.00;4990757;28;20864;-73
2022/08/22 08:38:48;;;;;;;8.13;3.23;;;20.80;69.80;;;20.38;51.81;97238.81;4990635;28;20479;-72
2022/08/22 08:42:08;;;;;;;12.70;4.03;;;20.90;70.00;;;20.50;51.56;97241.69;4990759;28;20453;-72
2022/08/22 08:45:37;;;;;;;7.68;3.40;;;21.00;69.70;;;20.58;51.31;97243.56;4990108;28;20478;-73
2022/08/22 08:48:43;;;;;;;6.72;3.30;;;21.10;69.30;;;20.65;51.01;97243.88;4930590;29;21017;-72
2022/08/22 08:51:26;;;;;;;7.18;4.20;;;21.20;69.00;;;20.77;50.50;97238.59;4930467;29;20435;-73
2022/08/22 08:54:25;;;;;;;9.52;3.97;;;21.30;68.40;;;20.78;49.77;97232.13;4983969;28;20504;-73
2022/08/22 08:57:06;;;;;;;6.43;3.40;;;21.30;67.60;;;20.86;50.16;97234.00;4976768;28;20403;-73
2022/08/22 08:59:47;;;;;;;10.32;3.47;;;21.40;67.90;;;20.92;50.20;97231.94;4994139;28;20402;-73
2022/08/22 09:02:31;;;;;;;6.97;3.92;;;21.40;67.60;;;20.99;49.46;97231.44;4994197;28;20873;-73
2022/08/22 09:05:47;;;;;;;5.80;3.42;;;21.50;67.00;;;21.11;49.81;97226.19;4993669;28;20404;-73
2022/08/22 09:08:49;;;;;;;7.03;3.70;;;21.60;67.30;;;21.19;49.58;97225.38;4993957;28;20464;-72
2022/08/22 09:12:19;;;;;;;5.35;3.35;;;21.70;67.00;;;21.32;48.95;97220.88;4983501;28;20780;-73
2022/08/22 09:15:17;;;;;;;7.43;3.63;;;21.80;67.10;;;21.43;47.91;97224.78;4966878;28;20418;-72
2022/08/22 09:18:32;;;;;;;9.95;3.88;;;21.90;64.90;;;21.47;47.00;97223.03;4993807;28;20411;-71
2022/08/22 09:22:00;;;;;;;7.70;3.70;;;22.00;63.70;;;21.64;48.00;97222.94;4993772;28;20494;-72
2022/08/22 09:25:07;;;;;;;7.80;3.88;;;22.20;64.70;;;21.84;47.85;97224.06;4993232;28;20410;-72
2022/08/22 09:27:39;;;;;;;5.53;3.60;;;22.30;64.80;;;21.96;46.62;97221.44;4993589;28;20395;-72
2022/08/22 09:30:10;;;;;;;7.43;3.60;;;22.50;63.10;;;22.08;45.32;97224.25;4993480;28;20780;-72
2022/08/22 09:32:55;;;;;;;4.73;3.50;;;22.60;61.40;;;22.13;45.98;97226.72;4993545;28;20402;-72
2022/08/22 09:35:37;;;;;;;5.97;3.47;;;22.60;62.30;;;22.16;46.49;97219.91;4993465;28;20402;-72
2022/08/22 09:38:37;;;;;;;6.82;3.78;;;22.60;62.70;;;22.22;46.15;97224.75;4993415;28;20967;-72
2022/08/22 09:41:22;;;;;;;6.30;3.08;;;22.70;62.40;;;22.30;46.60;97223.13;4993362;28;20485;-73
2022/08/22 09:44:11;;;;;;;6.28;3.40;;;22.80;63.10;;;22.38;46.64;97225.75;4992749;28;20399;-73
2022/08/22 09:46:52;;;;;;;8.18;3.60;;;22.80;63.50;;;22.51;46.65;97225.78;4993326;28;20414;-73
2022/08/22 09:49:32;;;;;;;5.38;3.22;;;23.00;62.90;;;22.61;45.89;97230.75;4993269;28;20411;-73
2022/08/22 09:52:06;;;;;;;7.20;3.60;;;23.00;62.20;;;22.68;45.65;97233.72;4993279;28;20505;-72
2022/08/22 09:54:42;;;;;;;6.38;3.58;;;23.10;61.80;;;22.80;44.88;97228.38;4992634;28;20404;-73
2022/08/22 09:57:29;;;;;;;7.28;3.90;;;23.20;61.10;;;22.83;43.67;97233.09;4993211;28;20409;-72
2022/08/22 10:00:21;;;;;;;6.72;3.45;;;23.30;60.00;;;22.87;44.91;97225.91;4993125;28;20406;-73
2022/08/22 10:03:04;;;;;;;5.43;3.47;;;23.30;60.80;;;22.93;44.27;97224.56;4992370;28;20472;-72
2022/08/22 10:05:42;;;;;;;6.00;3.20;;;23.40;60.00;;;22.97;43.29;97228.19;4992174;28;20488;-73
2022/08/22 10:08:19;;;;;;;5.22;3.40;;;23.40;58.80;;;23.10;44.60;97235.16;4992983;28;20395;-72
2022/08/22 10:11:24;;;;;;;4.45;2.90;;;23.50;60.00;;;23.35;43.72;97221.69;4992827;28;20426;-72
2022/08/22 10:14:02;;;;;;;4.57;2.92;;;23.70;60.00;;;23.49;43.63;97227.56;4992230;28;20409;-72
2022/08/22 10:16:58;;;;;;;7.13;3.60;;;23.80;59.10;;;23.61;41.21;97230.25;4992846;28;20402;-72
2022/08/22 10:19:31;;;;;;;5.80;3.28;;;24.10;56.80;;;24.15;40.33;97219.13;4992666;28;20490;-72
2022/08/22 10:22:28;;;;;;;4.85;3.60;;;24.50;56.10;;;24.39;39.75;97224.47;4975224;28;20434;-72
2022/08/22 10:25:18;;;;;;;6.57;3.53;;;24.80;55.30;;;24.77;40.41;97220.47;4991906;28;20776;-72
2022/08/22 10:28:04;;;;;;;8.23;3.60;;;25.10;56.10;;;25.09;39.47;97208.56;4975078;28;20403;-71
2022/08/22 10:30:41;;;;;;;4.57;3.13;;;25.60;54.40;;;25.50;37.66;97201.78;4992406;28;20449;-71
2022/08/22 10:33:14;;;;;;;6.43;3.15;;;25.90;53.60;;;25.78;37.00;97207.13;4991892;28;20409;-71
2022/08/22 10:36:00;;;;;;;4.32;2.80;;;26.20;51.70;;;26.10;34.34;97210.50;4992353;28;20394;-73
2022/08/22 10:38:33;;;;;;;6.87;2.90;;;26.50;49.30;;;26.25;35.52;97206.16;4992329;28;20405;-73
2022/08/22 10:41:07;;;;;;;7.13;3.07;;;26.60;50.30;;;26.49;34.43;97203.19;4992281;28;20399;-73
2022/08/22 10:43:51;;;;;;;5.97;3.17;;;26.90;49.30;;;26.33;34.49;97202.47;4991659;28;20398;-72
2022/08/22 10:46:27;;;;;;;6.63;3.28;;;26.70;49.70;;;26.36;32.57;97204.47;4992126;28;20491;-71
2022/08/22 10:48:57;;;;;;;4.72;2.70;;;26.70;46.90;;;26.36;32.32;97204.47;4991840;28;20407;-71
2022/08/22 10:51:42;;;;;;;7.30;3.30;;;26.70;47.10;;;26.34;32.91;97188.53;4991738;28;20418;-71
2022/08/22 10:54:26;;;;;;;5.25;2.88;;;26.80;47.60;;;26.35;34.02;97184.69;4991469;28;20545;-71
2022/08/22 10:57:07;;;;;;;6.18;3.58;;;26.80;48.60;;;26.38;32.98;97173.13;4991836;28;20406;-72
2022/08/22 10:59:43;;;;;;;5.93;3.08;;;26.90;47.20;;;26.46;33.63;97174.81;4991886;28;20746;-71
2022/08/22 11:02:45;;;;;;;6.43;3.13;;;26.90;48.00;;;26.37;34.24;97173.47;4991989;28;20398;-72
2022/08/22 11:05:38;;;;;;;5.35;3.25;;;26.80;49.30;;;26.41;34.56;97172.41;4991108;28;20423;-72
2022/08/22 11:08:54;;;;;;;5.55;2.80;;;26.80;49.20;;;26.47;35.01;97172.88;4991790;28;20402;-72
2022/08/22 11:11:40;;;;;;;7.55;3.20;;;26.80;49.70;;;26.57;34.24;97169.59;4991612;28;20433;-72
2022/08/22 11:14:56;;;;;;;6.32;2.90;;;26.90;49.00;;;26.57;33.87;97172.31;4991220;28;20938;-72
2022/08/22 11:18:06;;;;;;;4.30;2.72;;;26.90;48.40;;;26.72;33.77;97170.63;4991619;28;20497;-72
2022/08/22 11:20:46;;;;;;;9.55;3.30;;;27.00;49.00;;;26.37;31.88;97157.97;4991167;28;20446;-71
2022/08/22 11:23:28;;;;;;;6.67;2.80;;;26.90;45.90;;;26.21;32.42;97163.47;4991115;28;20928;-71
2022/08/22 11:26:08;;;;;;;12.25;3.47;;;26.70;46.60;;;26.09;32.29;97160.09;4991457;28;20398;-72
2022/08/22 11:29:19;;;;;;;6.57;3.10;;;26.50;46.30;;;25.98;32.24;97159.88;4991626;28;20398;-72